createdAt,value
2019-02-08T00:00:20.499Z,94.92
2019-02-08T00:02:49.083Z,94.84
2019-02-08T00:05:17.723Z,95.08
2019-02-08T00:07:46.406Z,95.19
2019-02-08T00:10:17.144Z,95.12
2019-02-08T00:12:45.732Z,95.06
2019-02-08T00:15:23.021Z,94.88
2019-02-08T00:17:51.607Z,94.73
2019-02-08T00:20:21.091Z,94.76
2019-02-08T00:22:49.692Z,94.60
2019-02-08T00:25:24.172Z,94.61
2019-02-08T00:27:52.763Z,94.67
2019-02-08T00:30:25.958Z,94.82
2019-02-08T00:32:54.651Z,94.95
2019-02-08T00:35:23.273Z,94.81
2019-02-08T00:37:51.895Z,95.07
2019-02-08T00:40:21.975Z,95.33
2019-02-08T00:42:50.560Z,95.48
2019-02-08T00:45:20.430Z,95.54
2019-02-08T00:47:49.009Z,95.49
2019-02-08T00:50:26.848Z,95.34
2019-02-08T00:52:55.490Z,95.34
2019-02-08T00:55:24.129Z,95.45
2019-02-08T00:57:52.711Z,95.57
2019-02-08T01:00:21.464Z,95.50
2019-02-08T01:02:51.526Z,95.70
2019-02-08T01:05:28.384Z,95.44
2019-02-08T01:07:57.030Z,95.86
2019-02-08T01:10:31.068Z,95.64
2019-02-08T01:13:00.501Z,95.44
2019-02-08T01:15:30.527Z,95.10
2019-02-08T01:18:02.076Z,95.00
2019-02-08T01:20:30.660Z,95.00
2019-02-08T01:22:59.253Z,94.73
2019-02-08T01:25:29.139Z,94.62
2019-02-08T01:27:57.724Z,94.54
2019-02-08T01:30:29.429Z,95.03
2019-02-08T01:32:58.014Z,95.21
2019-02-08T01:35:26.675Z,95.12
2019-02-08T01:37:55.360Z,94.92
2019-02-08T01:40:26.152Z,94.67
2019-02-08T01:42:54.736Z,94.89
2019-02-08T01:45:25.237Z,94.66
2019-02-08T01:47:53.822Z,94.83
2019-02-08T01:50:24.206Z,94.47
2019-02-08T01:52:52.794Z,94.46
2019-02-08T01:55:21.381Z,94.44
2019-02-08T01:57:50.801Z,95.06
2019-02-08T02:00:31.265Z,94.98
2019-02-08T02:02:59.953Z,94.81
2019-02-08T02:05:28.640Z,94.45
2019-02-08T02:07:57.222Z,94.38
2019-02-08T02:10:33.307Z,94.29
2019-02-08T02:13:01.898Z,94.45
2019-02-08T02:15:30.500Z,94.91
2019-02-08T02:17:59.090Z,95.02
2019-02-08T02:20:29.902Z,95.15
2019-02-08T02:22:58.487Z,95.16
2019-02-08T02:25:27.096Z,95.55
2019-02-08T02:27:55.690Z,95.16
2019-02-08T02:30:32.314Z,94.97
2019-02-08T02:33:00.895Z,95.05
2019-02-08T02:35:29.514Z,95.70
2019-02-08T02:37:58.144Z,96.01
2019-02-08T02:40:26.814Z,95.93
2019-02-08T02:42:55.395Z,95.32
2019-02-08T02:45:26.120Z,94.97
2019-02-08T02:47:54.714Z,94.88
2019-02-08T02:50:23.299Z,94.88
2019-02-08T02:52:51.922Z,94.67
2019-02-08T02:55:25.229Z,94.99
2019-02-08T02:57:53.863Z,94.76
2019-02-08T03:00:25.302Z,95.20
2019-02-08T03:02:53.941Z,95.33
2019-02-08T03:05:22.602Z,95.08
2019-02-08T03:07:51.184Z,95.43
2019-02-08T03:10:21.566Z,95.29
2019-02-08T03:12:50.150Z,95.25
2019-02-08T03:15:20.237Z,95.12
2019-02-08T03:17:48.826Z,95.51
2019-02-08T03:20:19.005Z,94.82
2019-02-08T03:22:47.687Z,94.82
2019-02-08T03:25:21.781Z,94.79
2019-02-08T03:27:50.380Z,94.75
2019-02-08T03:30:33.549Z,94.91
2019-02-08T03:33:02.116Z,94.71
2019-02-08T03:35:30.755Z,94.39
2019-02-08T03:37:59.374Z,94.72
2019-02-08T03:40:29.796Z,94.65
2019-02-08T03:42:58.376Z,94.67
2019-02-08T03:45:28.526Z,94.51
2019-02-08T03:47:57.110Z,94.93
2019-02-08T03:50:25.691Z,94.98
2019-02-08T03:52:54.864Z,94.91
2019-02-08T03:55:24.154Z,94.89
2019-02-08T03:57:52.731Z,95.19
2019-02-08T04:00:28.092Z,95.32
2019-02-08T04:02:56.770Z,95.15
2019-02-08T04:05:25.352Z,95.40
2019-02-08T04:07:54.076Z,95.41
2019-02-08T04:10:22.731Z,95.38
2019-02-08T04:12:51.347Z,95.43
2019-02-08T04:15:24.223Z,95.28
2019-02-08T04:17:52.805Z,95.38
2019-02-08T04:20:26.299Z,95.24
2019-02-08T04:22:55.824Z,95.21
2019-02-08T04:25:24.952Z,95.11
2019-02-08T04:27:53.635Z,95.04
2019-02-08T04:30:27.164Z,95.01
2019-02-08T04:32:55.749Z,95.10
2019-02-08T04:35:24.387Z,95.60
2019-02-08T04:37:52.971Z,95.40
2019-02-08T04:40:23.149Z,95.01
2019-02-08T04:42:51.774Z,94.69
2019-02-08T04:45:20.539Z,94.70
2019-02-08T04:47:49.112Z,94.71
2019-02-08T04:50:20.817Z,94.48
2019-02-08T04:52:49.400Z,94.47
2019-02-08T04:55:18.101Z,94.15
2019-02-08T04:57:46.680Z,94.42
2019-02-08T05:00:23.614Z,94.65
2019-02-08T05:02:52.195Z,94.98
2019-02-08T05:05:20.785Z,94.79
2019-02-08T05:07:50.543Z,94.58
2019-02-08T05:10:23.956Z,94.58
2019-02-08T05:12:52.577Z,94.58
2019-02-08T05:15:22.985Z,94.76
2019-02-08T05:17:51.503Z,94.67
2019-02-08T05:20:22.181Z,94.12
2019-02-08T05:22:50.768Z,94.56
2019-02-08T05:25:19.351Z,94.62
2019-02-08T05:27:47.936Z,94.38
2019-02-08T05:30:34.297Z,94.39
2019-02-08T05:33:02.887Z,94.22
2019-02-08T05:35:31.525Z,94.29
2019-02-08T05:41:40.486Z,94.27
2019-02-08T05:44:09.597Z,94.49
2019-02-08T05:46:38.230Z,95.16
2019-02-08T05:49:08.011Z,95.39
2019-02-08T05:51:36.595Z,95.46
2019-02-08T05:54:05.231Z,95.35
2019-02-08T05:56:33.816Z,95.19
2019-02-08T05:59:02.401Z,94.87
2019-02-08T06:01:30.984Z,94.83
2019-02-08T06:03:59.560Z,95.19
2019-02-08T06:06:28.135Z,95.39
2019-02-08T06:08:56.720Z,95.03
2019-02-08T06:11:25.310Z,95.02
2019-02-08T06:13:53.907Z,94.64
2019-02-08T06:16:22.577Z,94.20
2019-02-08T06:19:04.932Z,93.78
2019-02-08T06:21:33.608Z,93.81
2019-02-08T06:24:02.194Z,93.92
2019-02-08T06:26:30.841Z,94.05
2019-02-08T06:28:59.428Z,95.06
2019-02-08T06:31:28.008Z,95.21
2019-02-08T06:33:56.705Z,95.17
2019-02-08T06:36:25.289Z,94.45
2019-02-08T06:38:53.868Z,94.17
2019-02-08T06:41:22.457Z,94.31
2019-02-08T06:43:51.044Z,94.33
2019-02-08T06:46:19.619Z,94.44
2019-02-08T06:48:48.197Z,94.14
2019-02-08T06:51:16.779Z,94.10
2019-02-08T06:53:45.401Z,93.91
2019-02-08T06:56:15.629Z,93.65
2019-02-08T06:58:48.825Z,93.43
2019-02-08T07:01:22.352Z,93.19
2019-02-08T07:03:52.504Z,93.43
2019-02-08T07:06:25.451Z,92.97
2019-02-08T07:09:10.548Z,92.73
2019-02-08T07:11:40.703Z,93.12
2019-02-08T07:14:13.300Z,93.94
2019-02-08T07:16:59.904Z,93.82
2019-02-08T07:19:42.188Z,94.03
2019-02-08T07:22:28.440Z,93.43
2019-02-08T07:24:58.611Z,93.75
2019-02-08T07:27:29.568Z,93.87
2019-02-08T07:29:59.795Z,93.17
2019-02-08T07:32:32.688Z,93.28
2019-02-08T07:35:05.680Z,93.87
2019-02-08T07:37:48.236Z,93.80
2019-02-08T07:40:42.738Z,94.03
2019-02-08T07:43:13.095Z,93.77
2019-02-08T07:45:52.248Z,94.18
2019-02-08T07:48:22.400Z,94.01
2019-02-08T07:50:55.588Z,93.55
2019-02-08T07:53:31.641Z,93.32
2019-02-08T07:56:10.716Z,93.22
2019-02-08T07:58:40.879Z,93.11
2019-02-08T08:01:15.007Z,92.90
2019-02-08T08:03:45.167Z,93.04
2019-02-08T08:06:33.668Z,92.51
2019-02-08T08:09:09.596Z,92.47
2019-02-08T08:11:48.332Z,92.73
2019-02-08T08:14:30.637Z,92.66
2019-02-08T08:17:06.950Z,92.19
2019-02-08T08:19:40.064Z,91.51
2019-02-08T08:22:20.105Z,91.66
2019-02-08T08:25:06.518Z,91.25
2019-02-08T08:27:48.944Z,91.94
2019-02-08T08:30:25.475Z,91.21
2019-02-08T08:32:57.279Z,91.69
2019-02-08T08:35:32.005Z,91.24
2019-02-08T08:38:18.630Z,91.11
2019-02-08T08:41:02.203Z,90.81
2019-02-08T08:43:49.093Z,91.45
2019-02-08T08:46:29.510Z,91.33
2019-02-08T08:49:07.078Z,90.55
2019-02-08T08:51:44.899Z,91.13
2019-02-08T08:54:42.615Z,91.78
2019-02-08T08:57:23.380Z,91.70
2019-02-08T09:00:16.255Z,91.16
2019-02-08T09:03:07.391Z,91.44
2019-02-08T09:05:45.030Z,89.86
2019-02-08T09:08:25.697Z,89.09
2019-02-08T09:11:09.217Z,88.97
2019-02-08T09:14:08.255Z,89.09
2019-02-08T09:16:49.051Z,89.13
2019-02-08T09:19:43.409Z,88.38
2019-02-08T09:22:33.007Z,87.63
2019-02-08T09:25:16.634Z,87.33
2019-02-08T09:28:17.250Z,87.04
2019-02-08T09:31:10.119Z,86.75
2019-02-08T09:33:58.596Z,84.53
2019-02-08T09:36:59.243Z,85.69
2019-02-08T09:39:51.965Z,86.37
2019-02-08T09:42:57.185Z,86.99
2019-02-08T09:45:38.565Z,86.76
2019-02-08T09:48:39.989Z,85.99
2019-02-08T09:51:36.034Z,85.49
2019-02-08T09:54:42.301Z,85.43
2019-02-08T09:57:48.204Z,85.79
2019-02-08T10:00:28.936Z,86.10
2019-02-08T10:03:27.723Z,84.47
2019-02-08T10:06:22.116Z,84.73
2019-02-08T10:09:17.925Z,84.50
2019-02-08T10:11:52.115Z,82.99
2019-02-08T10:14:29.915Z,84.21
2019-02-08T10:17:16.495Z,82.44
2019-02-08T10:20:03.491Z,83.36
2019-02-08T10:23:08.512Z,82.90
2019-02-08T10:26:05.852Z,82.46
2019-02-08T10:28:52.780Z,82.91
2019-02-08T10:31:27.313Z,82.45
2019-02-08T10:34:33.843Z,82.33
2019-02-08T10:37:38.817Z,82.43
2019-02-08T10:40:40.308Z,81.78
2019-02-08T10:43:12.965Z,82.39
2019-02-08T10:46:13.741Z,81.54
2019-02-08T10:48:54.492Z,82.57
2019-02-08T10:51:51.910Z,81.96
2019-02-08T10:54:42.595Z,81.64
2019-02-08T10:57:31.883Z,81.54
2019-02-08T11:00:25.649Z,81.87
2019-02-08T11:03:13.851Z,81.19
2019-02-08T11:06:19.835Z,81.82
2019-02-08T11:09:15.853Z,82.62
2019-02-08T11:12:11.687Z,81.24
2019-02-08T11:15:07.511Z,81.25
2019-02-08T11:17:54.047Z,79.72
2019-02-08T11:20:22.628Z,81.06
2019-02-08T11:22:51.211Z,81.73
2019-02-08T11:25:19.821Z,80.15
2019-02-08T11:27:48.408Z,80.48
2019-02-08T11:30:17.787Z,78.67
2019-02-08T11:32:46.415Z,76.97
2019-02-08T11:35:15.555Z,76.65
2019-02-08T11:37:44.490Z,77.76
2019-02-08T11:40:16.187Z,78.16
2019-02-08T11:42:44.773Z,78.33
2019-02-08T11:45:15.005Z,78.48
2019-02-08T11:47:43.591Z,76.87
2019-02-08T11:50:20.750Z,74.13
2019-02-08T11:52:49.327Z,73.62
2019-02-08T11:55:17.908Z,75.22
2019-02-08T11:57:46.487Z,75.22
2019-02-08T12:00:23.102Z,74.46
2019-02-08T12:02:51.682Z,72.35
2019-02-08T12:05:20.351Z,73.44
2019-02-08T12:07:48.926Z,73.41
2019-02-08T12:10:17.503Z,74.40
2019-02-08T12:12:46.085Z,73.37
2019-02-08T12:15:17.368Z,71.52
2019-02-08T12:17:45.944Z,72.36
2019-02-08T12:20:14.522Z,72.54
2019-02-08T12:22:43.103Z,71.87
2019-02-08T12:25:16.144Z,72.45
2019-02-08T12:27:44.728Z,72.92
2019-02-08T12:30:31.302Z,70.60
2019-02-08T12:32:59.912Z,71.54
2019-02-08T12:35:28.501Z,72.87
2019-02-08T12:37:57.130Z,71.18
2019-02-08T12:40:25.750Z,71.52
2019-02-08T12:42:54.331Z,71.29
2019-02-08T12:45:22.912Z,70.38
2019-02-08T12:47:51.496Z,72.45
2019-02-08T12:50:20.072Z,71.92
2019-02-08T12:52:48.653Z,71.09
2019-02-08T12:55:18.781Z,72.23
2019-02-08T12:57:47.361Z,72.23
2019-02-08T13:00:18.539Z,72.06
2019-02-08T13:02:47.123Z,71.51
2019-02-08T13:05:16.811Z,71.64
2019-02-08T13:07:45.394Z,71.67
2019-02-08T13:10:19.718Z,72.00
2019-02-08T13:12:48.299Z,73.02
2019-02-08T13:15:17.005Z,74.20
2019-02-08T13:17:45.587Z,76.34
2019-02-08T13:20:21.969Z,75.27
2019-02-08T13:22:50.584Z,75.06
2019-02-08T13:25:19.165Z,75.28
2019-02-08T13:27:48.848Z,75.43
2019-02-08T13:30:26.019Z,74.72
2019-02-08T13:32:54.604Z,75.01
2019-02-08T13:35:23.189Z,75.80
2019-02-08T13:37:51.774Z,74.29
2019-02-08T13:40:27.706Z,73.19
2019-02-08T13:42:56.321Z,73.47
2019-02-08T13:45:25.090Z,72.72
2019-02-08T13:47:53.664Z,73.50
2019-02-08T13:50:30.527Z,73.83
2019-02-08T13:52:59.325Z,73.66
2019-02-08T13:55:27.942Z,73.68
2019-02-08T13:57:56.524Z,73.02
2019-02-08T14:00:30.425Z,73.47
2019-02-08T14:02:59.014Z,72.63
2019-02-08T14:05:27.604Z,73.77
2019-02-08T14:07:56.175Z,73.62
2019-02-08T14:10:24.759Z,72.22
2019-02-08T14:12:53.453Z,71.95
2019-02-08T14:15:23.874Z,71.96
2019-02-08T14:17:52.461Z,71.40
2019-02-08T14:20:25.641Z,72.22
2019-02-08T14:22:54.214Z,71.40
2019-02-08T14:25:22.821Z,72.22
2019-02-08T14:27:51.401Z,72.33
2019-02-08T14:30:31.591Z,72.48
2019-02-08T14:33:00.170Z,71.38
2019-02-08T14:35:28.854Z,70.17
2019-02-08T14:37:58.714Z,68.12
2019-02-08T14:40:28.896Z,68.17
2019-02-08T14:42:57.478Z,68.54
2019-02-08T14:45:26.154Z,69.15
2019-02-08T14:47:54.792Z,68.27
2019-02-08T14:50:28.549Z,69.85
2019-02-08T14:52:57.633Z,69.23
2019-02-08T14:55:26.211Z,70.59
2019-02-08T14:57:57.465Z,69.61
2019-02-08T15:00:26.041Z,68.97
2019-02-08T15:02:54.632Z,68.97
2019-02-08T15:05:23.812Z,70.05
2019-02-08T15:07:52.392Z,69.97
2019-02-08T15:10:35.854Z,67.96
2019-02-08T15:13:04.432Z,68.12
2019-02-08T15:15:33.010Z,67.87
2019-02-08T15:18:01.637Z,66.98
2019-02-08T15:20:36.176Z,66.63
2019-02-08T15:23:04.859Z,66.69
2019-02-08T15:25:33.496Z,67.46
2019-02-08T15:28:02.071Z,66.82
2019-02-08T15:30:34.658Z,67.79
2019-02-08T15:33:03.247Z,67.76
2019-02-08T15:35:31.930Z,67.84
2019-02-08T15:38:00.589Z,69.13
2019-02-08T15:40:34.733Z,68.83
2019-02-08T15:43:03.321Z,69.44
2019-02-08T15:45:31.907Z,69.36
2019-02-08T15:48:00.489Z,69.33
2019-02-08T15:50:29.188Z,71.74
2019-02-08T15:52:58.008Z,71.17
2019-02-08T15:55:29.450Z,71.48
2019-02-08T15:57:58.035Z,72.19
2019-02-08T16:00:28.850Z,71.89
2019-02-08T16:02:57.545Z,72.87
2019-02-08T16:05:26.226Z,73.59
2019-02-08T16:07:54.809Z,73.81
2019-02-08T16:10:23.389Z,76.17
2019-02-08T16:12:51.978Z,75.62
2019-02-08T16:15:29.414Z,77.35
2019-02-08T16:17:57.990Z,78.92
2019-02-08T16:20:30.709Z,79.63
2019-02-08T16:23:00.126Z,80.01
2019-02-08T16:25:31.966Z,79.83
2019-02-08T16:28:00.640Z,80.33
2019-02-08T16:30:31.622Z,80.38
2019-02-08T16:33:00.505Z,80.38
2019-02-08T16:35:29.088Z,81.80
2019-02-08T16:37:57.671Z,81.33
2019-02-08T16:40:30.159Z,80.57
2019-02-08T16:42:58.852Z,81.00
2019-02-08T16:45:32.839Z,81.14
2019-02-08T16:48:02.136Z,78.17
2019-02-08T16:50:32.320Z,79.82
2019-02-08T16:53:00.906Z,80.08
2019-02-08T16:55:29.548Z,80.58
2019-02-08T16:57:58.260Z,77.67
2019-02-08T17:00:32.435Z,79.23
2019-02-08T17:03:02.616Z,78.47
2019-02-08T17:05:31.517Z,77.83
2019-02-08T17:08:00.103Z,79.75
2019-02-08T17:10:28.683Z,81.40
2019-02-08T17:12:57.271Z,81.49
2019-02-08T17:15:30.737Z,81.65
2019-02-08T17:17:59.417Z,82.09
2019-02-08T17:20:33.288Z,82.18
2019-02-08T17:23:01.873Z,81.84
2019-02-08T17:25:31.493Z,82.26
2019-02-08T17:28:00.606Z,82.05
2019-02-08T17:30:29.192Z,81.65
2019-02-08T17:32:57.772Z,81.78
2019-02-08T17:35:28.011Z,81.94
2019-02-08T17:37:56.597Z,81.37
2019-02-08T17:40:33.512Z,82.15
2019-02-08T17:43:02.111Z,83.58
2019-02-08T17:45:30.721Z,83.58
2019-02-08T17:48:00.400Z,83.27
2019-02-08T17:50:29.160Z,83.25
2019-02-08T17:52:58.199Z,83.68
2019-02-08T17:55:30.736Z,83.55
2019-02-08T17:58:03.718Z,83.17
2019-02-08T18:00:45.582Z,83.16
2019-02-08T18:03:14.234Z,83.29
2019-02-08T18:05:42.920Z,83.70
2019-02-08T18:08:11.713Z,83.95
2019-02-08T18:10:40.303Z,84.46
2019-02-08T18:13:09.569Z,84.83
2019-02-08T18:15:38.163Z,84.71
2019-02-08T18:18:10.044Z,84.44
2019-02-08T18:20:53.486Z,84.77
2019-02-08T18:23:22.064Z,84.90
2019-02-08T18:25:50.653Z,85.16
2019-02-08T18:28:19.224Z,85.02
2019-02-08T18:30:47.982Z,85.18
2019-02-08T18:33:16.807Z,85.36
2019-02-08T18:35:45.363Z,85.00
2019-02-08T18:38:13.956Z,84.53
2019-02-08T18:40:42.539Z,84.17
2019-02-08T18:43:11.868Z,84.96
2019-02-08T18:45:40.455Z,84.84
2019-02-08T18:48:09.985Z,85.34
2019-02-08T18:50:41.343Z,86.03
2019-02-08T18:53:10.987Z,85.93
2019-02-08T18:55:39.580Z,86.34
2019-02-08T18:58:08.479Z,86.01
2019-02-08T19:00:45.661Z,86.71
2019-02-08T19:03:14.308Z,86.85
2019-02-08T19:05:42.929Z,87.12
2019-02-08T19:08:11.682Z,87.27
2019-02-08T19:10:40.265Z,87.31
2019-02-08T19:13:09.713Z,87.54
2019-02-08T19:15:38.399Z,87.54
2019-02-08T19:18:07.463Z,87.73
2019-02-08T19:20:36.083Z,87.43
2019-02-08T19:23:04.964Z,87.35
2019-02-08T19:25:39.020Z,86.70
2019-02-08T19:28:08.039Z,86.73
2019-02-08T19:30:41.863Z,86.35
2019-02-08T19:33:11.600Z,86.84
2019-02-08T19:35:40.238Z,86.60
2019-02-08T19:38:09.074Z,86.17
2019-02-08T19:40:46.876Z,86.14
2019-02-08T19:43:15.496Z,86.52
2019-02-08T19:45:44.114Z,87.67
2019-02-08T19:48:12.729Z,88.59
2019-02-08T19:50:43.010Z,88.86
2019-02-08T19:53:11.848Z,88.98
2019-02-08T19:55:40.636Z,89.01
2019-02-08T19:58:10.576Z,88.88
2019-02-08T20:00:44.129Z,89.02
2019-02-08T20:03:12.711Z,89.40
2019-02-08T20:05:41.294Z,89.13
2019-02-08T20:08:12.333Z,89.23
2019-02-08T20:10:43.414Z,89.27
2019-02-08T20:13:11.997Z,88.85
2019-02-08T20:15:40.576Z,88.62
2019-02-08T20:18:09.944Z,88.55
2019-02-08T20:20:38.564Z,88.44
2019-02-08T20:23:07.997Z,88.45
2019-02-08T20:25:37.217Z,88.34
2019-02-08T20:28:06.619Z,88.20
2019-02-08T20:30:35.233Z,87.97
2019-02-08T20:33:03.847Z,88.37
2019-02-08T20:35:32.487Z,88.12
2019-02-08T20:38:01.473Z,87.87
2019-02-08T20:40:35.134Z,88.38
2019-02-08T20:43:03.713Z,88.76
2019-02-08T20:45:33.579Z,88.75
2019-02-08T20:48:04.527Z,88.08
2019-02-08T20:50:33.122Z,87.89
2019-02-08T20:53:01.805Z,87.15
2019-02-08T20:55:31.071Z,87.18
2019-02-08T20:57:59.642Z,86.73
2019-02-08T21:00:31.799Z,86.25
2019-02-08T21:03:00.903Z,86.05
2019-02-08T21:05:30.524Z,86.32
2019-02-08T21:07:59.146Z,85.78
2019-02-08T21:10:27.830Z,86.26
2019-02-08T21:12:56.455Z,86.07
2019-02-08T21:15:25.204Z,86.25
2019-02-08T21:17:53.788Z,86.59
2019-02-08T21:20:22.372Z,86.66
2019-02-08T21:22:51.057Z,86.39
2019-02-08T21:25:28.869Z,86.74
2019-02-08T21:27:57.463Z,86.86
2019-02-08T21:30:26.042Z,87.19
2019-02-08T21:32:54.675Z,87.15
2019-02-08T21:35:23.293Z,87.23
2019-02-08T21:37:51.868Z,86.36
2019-02-08T21:40:22.911Z,86.03
2019-02-08T21:42:51.564Z,85.75
2019-02-08T21:45:23.301Z,85.47
2019-02-08T21:47:51.898Z,85.45
2019-02-08T21:50:21.691Z,85.67
2019-02-08T21:52:50.287Z,85.99
2019-02-08T21:55:23.412Z,85.84
2019-02-08T21:57:51.998Z,85.69
2019-02-08T22:00:22.374Z,85.41
2019-02-08T22:02:50.963Z,85.36
2019-02-08T22:05:22.431Z,86.03
2019-02-08T22:07:51.010Z,86.44
2019-02-08T22:10:19.595Z,86.60
2019-02-08T22:12:48.180Z,87.22
2019-02-08T22:15:19.504Z,87.19
2019-02-08T22:17:48.120Z,87.03
2019-02-08T22:20:19.846Z,86.61
2019-02-08T22:22:48.518Z,85.93
2019-02-08T22:25:19.656Z,86.02
2019-02-08T22:27:48.419Z,86.66
2019-02-08T22:30:20.115Z,86.19
2019-02-08T22:32:49.398Z,85.75
2019-02-08T22:35:18.987Z,85.63
2019-02-08T22:37:47.568Z,85.04
2019-02-08T22:40:19.265Z,85.86
2019-02-08T22:42:47.844Z,86.11
2019-02-08T22:45:40.593Z,86.07
2019-02-08T22:48:09.517Z,86.32
2019-02-08T22:50:38.096Z,85.97
2019-02-08T22:53:07.570Z,85.74
2019-02-08T22:55:36.652Z,85.92
2019-02-08T22:58:06.836Z,85.88
2019-02-08T23:00:39.870Z,84.78
2019-02-08T23:03:11.141Z,84.02
2019-02-08T23:05:45.355Z,83.85
2019-02-08T23:08:11.016Z,84.66
2019-02-08T23:10:39.600Z,84.37
2019-02-08T23:13:11.321Z,84.72
2019-02-08T23:15:39.969Z,84.63
2019-02-08T23:18:12.276Z,84.73
2019-02-08T23:20:40.858Z,84.62
2019-02-08T23:23:09.551Z,82.01
2019-02-08T23:25:38.302Z,80.84
2019-02-08T23:28:07.166Z,79.91
2019-02-08T23:30:35.878Z,79.94
2019-02-08T23:33:04.959Z,77.16
2019-02-08T23:35:33.545Z,76.74
2019-02-08T23:38:02.123Z,77.17
2019-02-08T23:40:30.706Z,76.48
2019-02-08T23:42:59.283Z,77.08
2019-02-08T23:45:27.876Z,77.32
2019-02-08T23:47:56.467Z,77.80
2019-02-08T23:50:25.795Z,78.97
2019-02-08T23:52:54.375Z,79.46
2019-02-08T23:55:24.351Z,80.47
2019-02-08T23:57:52.972Z,80.90
